Time;durP1;ratioP1;P1;durP2;ratioP2;P2;SDS_P1;SDS_P2;PMS_P1;PMS_P2;Temp;Humidity;BMP_temperature;BMP_pressure;BME280_temperature;BME280_humidity;BME280_pressure;Samples;Min_cycle;Max_cycle;Signal;HPM_P1;HPM_P2
2023/01/09 00:02:07;;;;;;;;;;;18.90;58.70;;;;;;5072890;28;44084;-74
2023/01/09 00:04:33;;;;;;;;;;;18.90;58.70;;;;;;5063558;28;43059;-73
2023/01/09 00:06:59;;;;;;;;;;;18.90;58.70;;;;;;5064980;28;43735;-74
2023/01/09 00:09:24;;;;;;;;;;;18.90;58.70;;;;;;5065390;28;43029;-75
2023/01/09 00:11:50;;;;;;;;;;;18.90;58.70;;;;;;5065399;28;44209;-74
2023/01/09 00:14:16;;;;;;;;;;;18.90;58.60;;;;;;5065357;28;42916;-75
2023/01/09 00:16:42;;;;;;;;;;;18.90;58.60;;;;;;5064725;28;43523;-74
2023/01/09 00:19:07;;;;;;;;;;;18.90;58.60;;;;;;5064388;28;43035;-73
2023/01/09 00:21:33;;;;;;;;;;;18.90;58.70;;;;;;5064494;28;42895;-74
2023/01/09 00:23:58;;;;;;;;;;;18.90;58.70;;;;;;5064466;28;42963;-74
2023/01/09 00:26:24;;;;;;;;;;;18.90;58.70;;;;;;5064973;28;42844;-76
2023/01/09 00:28:50;;;;;;;;;;;18.90;58.70;;;;;;5065079;28;42807;-76
2023/01/09 00:31:16;;;;;;;;;;;18.90;58.60;;;;;;5067894;28;43318;-76
2023/01/09 00:33:43;;;;;;;;;;;18.90;58.60;;;;;;5072685;27;42888;-75
2023/01/09 00:36:09;;;;;;;;;;;18.90;58.60;;;;;;5064911;28;43174;-75
2023/01/09 00:38:36;;;;;;;;;;;18.90;58.60;;;;;;5066087;28;42920;-75
2023/01/09 00:41:03;;;;;;;;;;;18.90;58.60;;;;;;5070534;28;42895;-74
2023/01/09 00:43:31;;;;;;;;;;;18.90;58.60;;;;;;5065040;28;42961;-74
2023/01/09 00:45:57;;;;;;;;;;;18.90;58.60;;;;;;5064437;28;42891;-73
2023/01/09 00:48:25;;;;;;;;;;;18.90;58.50;;;;;;5064578;28;42989;-75
2023/01/09 00:50:55;;;;;;;;;;;18.90;58.60;;;;;;5067408;28;43898;-75
2023/01/09 00:53:22;;;;;;;;;;;18.90;58.60;;;;;;5068595;28;42944;-75
2023/01/09 00:55:48;;;;;;;;;;;18.90;58.60;;;;;;5067767;28;43727;-75
2023/01/09 00:58:14;;;;;;;;;;;18.90;58.60;;;;;;5067749;28;42913;-75
2023/01/09 01:00:39;;;;;;;;;;;18.90;58.70;;;;;;5068247;28;42854;-75
2023/01/09 01:03:05;;;;;;;;;;;18.90;58.70;;;;;;5070032;28;43006;-75
2023/01/09 01:08:16;;;;;;;;;;;18.90;58.70;;;;;;5067840;28;42998;-75
2023/01/09 01:10:41;;;;;;;;;;;18.90;58.70;;;;;;5067526;28;44106;-75
2023/01/09 01:13:07;;;;;;;;;;;18.90;58.70;;;;;;5067288;28;43606;-75
2023/01/09 01:15:33;;;;;;;;;;;18.90;58.70;;;;;;5067560;28;43746;-74
2023/01/09 01:17:59;;;;;;;;;;;18.90;58.70;;;;;;5067638;28;43102;-75
2023/01/09 01:20:24;;;;;;;;;;;18.90;58.80;;;;;;5067819;28;42938;-75
2023/01/09 01:22:50;;;;;;;;;;;18.90;58.70;;;;;;5066499;28;43340;-75
2023/01/09 01:25:16;;;;;;;;;;;18.90;58.70;;;;;;5067625;28;43372;-74
2023/01/09 01:27:42;;;;;;;;;;;18.90;58.80;;;;;;5067825;28;43026;-74
2023/01/09 01:30:08;;;;;;;;;;;18.90;58.70;;;;;;5067829;28;43433;-74
2023/01/09 01:32:34;;;;;;;;;;;18.90;58.70;;;;;;5067285;28;42829;-74
2023/01/09 01:34:59;;;;;;;;;;;18.90;58.60;;;;;;5067483;28;42858;-75
2023/01/09 01:37:26;;;;;;;;;;;18.90;58.70;;;;;;5067554;28;42831;-74
2023/01/09 01:39:52;;;;;;;;;;;18.90;58.70;;;;;;5067654;28;42854;-74
2023/01/09 01:42:18;;;;;;;;;;;18.90;58.70;;;;;;5067544;28;42930;-74
2023/01/09 01:45:04;;;;;;;;;;;18.90;58.70;;;;;;5067414;28;42819;-74
2023/01/09 01:47:36;;;;;;;;;;;18.80;58.70;;;;;;5075924;28;43201;-74
2023/01/09 01:50:03;;;;;;;;;;;18.90;58.70;;;;;;5087437;28;43507;-74
2023/01/09 01:52:29;;;;;;;;;;;18.90;58.70;;;;;;5086128;28;43016;-74
2023/01/09 01:54:54;;;;;;;;;;;18.90;58.70;;;;;;5087445;27;43653;-74
2023/01/09 01:57:20;;;;;;;;;;;18.80;58.70;;;;;;5077083;28;42910;-75
2023/01/09 01:59:51;;;;;;;;;;;18.90;58.80;;;;;;5087114;28;43548;-75
2023/01/09 02:02:21;;;;;;;;;;;18.90;59.20;;;;;;5087741;27;42780;-74
2023/01/09 02:04:47;;;;;;;;;;;18.90;58.70;;;;;;5087528;27;43471;-76
2023/01/09 02:07:13;;;;;;;;;;;18.80;58.70;;;;;;5081562;28;42842;-75
2023/01/09 02:09:39;;;;;;;;;;;18.90;58.80;;;;;;5086730;28;43019;-74
2023/01/09 02:12:14;;;;;;;;;;;18.80;59.20;;;;;;5086669;27;42826;-74
2023/01/09 02:14:39;;;;;;;;;;;18.90;58.80;;;;;;5086971;28;43914;-74
2023/01/09 02:17:08;;;;;;;;;;;18.90;58.80;;;;;;5087154;28;43013;-74
2023/01/09 02:19:53;;;;;;;;;;;18.80;58.80;;;;;;5086019;28;43727;-75
2023/01/09 02:22:24;;;;;;;;;;;18.80;58.70;;;;;;5086551;27;43415;-74
2023/01/09 02:24:59;;;;;;;;;;;18.90;58.80;;;;;;5085077;28;44731;-73
2023/01/09 02:27:24;;;;;;;;;;;18.90;58.70;;;;;;5085903;28;42936;-76
2023/01/09 02:29:50;;;;;;;;;;;18.90;58.80;;;;;;5086747;28;43591;-75
2023/01/09 02:32:15;;;;;;;;;;;18.90;58.80;;;;;;5087158;28;42985;-74
2023/01/09 02:34:59;;;;;;;;;;;18.90;58.70;;;;;;5086076;28;42831;-76
2023/01/09 02:37:25;;;;;;;;;;;18.80;58.70;;;;;;5086227;28;43197;-75
2023/01/09 02:39:55;;;;;;;;;;;18.90;58.80;;;;;;5086365;28;43900;-75
2023/01/09 02:42:22;;;;;;;;;;;18.90;58.80;;;;;;5086626;27;42986;-76
2023/01/09 02:44:48;;;;;;;;;;;18.90;58.70;;;;;;5085969;27;43313;-74
2023/01/09 02:47:16;;;;;;;;;;;18.80;58.70;;;;;;5082119;28;42975;-76
2023/01/09 02:49:45;;;;;;;;;;;18.90;58.70;;;;;;5065397;28;42898;-75
2023/01/09 02:52:19;;;;;;;;;;;18.80;58.70;;;;;;5066132;28;43019;-75
2023/01/09 02:55:08;;;;;;;;;;;18.90;58.80;;;;;;5065010;28;43982;-75
2023/01/09 02:57:33;;;;;;;;;;;18.90;58.80;;;;;;5054404;28;42859;-74
2023/01/09 03:00:01;;;;;;;;;;;18.80;58.70;;;;;;5065489;28;43087;-75
2023/01/09 03:02:41;;;;;;;;;;;18.80;58.70;;;;;;5065455;28;42946;-75
2023/01/09 03:05:18;;;;;;;;;;;18.80;58.80;;;;;;5065155;28;43536;-73
2023/01/09 03:07:54;;;;;;;;;;;18.90;58.70;;;;;;5064768;28;42999;-74
2023/01/09 03:10:39;;;;;;;;;;;18.80;58.70;;;;;;5064462;28;43511;-74
2023/01/09 03:13:08;;;;;;;;;;;18.80;58.70;;;;;;5064951;28;42912;-75
2023/01/09 03:15:35;;;;;;;;;;;18.80;58.70;;;;;;5065036;28;43620;-75
2023/01/09 03:18:02;;;;;;;;;;;18.80;58.80;;;;;;5065617;28;43022;-75
2023/01/09 03:20:29;;;;;;;;;;;18.80;58.80;;;;;;5065308;28;42906;-75
2023/01/09 03:22:56;;;;;;;;;;;18.90;58.80;;;;;;5065165;28;43748;-74
2023/01/09 03:25:22;;;;;;;;;;;18.80;58.80;;;;;;5065567;28;42843;-75
2023/01/09 03:27:50;;;;;;;;;;;18.80;58.80;;;;;;5065052;28;42998;-74
2023/01/09 03:30:16;;;;;;;;;;;18.90;58.80;;;;;;5086136;28;43812;-74
2023/01/09 03:32:41;;;;;;;;;;;18.80;58.80;;;;;;5086240;28;42941;-75
2023/01/09 03:35:07;;;;;;;;;;;18.80;58.80;;;;;;5085046;28;42871;-75
2023/01/09 03:37:32;;;;;;;;;;;18.80;58.70;;;;;;5086020;28;43015;-75
2023/01/09 03:39:58;;;;;;;;;;;18.90;58.70;;;;;;5081427;28;43436;-75
2023/01/09 03:42:23;;;;;;;;;;;18.90;58.80;;;;;;5065341;28;42942;-75
2023/01/09 03:44:50;;;;;;;;;;;18.90;58.70;;;;;;5064510;28;43983;-76
2023/01/09 03:47:16;;;;;;;;;;;18.80;58.80;;;;;;5064106;28;43287;-75
2023/01/09 03:49:41;;;;;;;;;;;18.70;59.20;;;;;;5064410;27;43585;-75
2023/01/09 03:52:07;;;;;;;;;;;18.70;59.10;;;;;;5063978;28;42937;-74
2023/01/09 03:54:32;;;;;;;;;;;18.80;58.90;;;;;;5064567;28;43106;-74
2023/01/09 03:56:58;;;;;;;;;;;18.80;58.90;;;;;;5065586;28;43086;-74
2023/01/09 03:59:24;;;;;;;;;;;18.80;58.80;;;;;;5064436;28;43833;-75
2023/01/09 04:01:50;;;;;;;;;;;18.80;58.80;;;;;;5065474;28;42948;-75
2023/01/09 04:04:15;;;;;;;;;;;18.80;58.80;;;;;;5064203;28;43380;-75
2023/01/09 04:06:41;;;;;;;;;;;18.80;58.80;;;;;;5065027;28;42962;-74
2023/01/09 04:09:07;;;;;;;;;;;18.80;58.90;;;;;;5064372;28;42909;-76
2023/01/09 04:11:32;;;;;;;;;;;18.80;58.80;;;;;;5064842;28;42998;-74
2023/01/09 04:13:58;;;;;;;;;;;18.80;58.80;;;;;;5063026;28;43657;-74
2023/01/09 04:16:23;;;;;;;;;;;18.80;58.80;;;;;;5064895;28;42873;-75
2023/01/09 04:18:49;;;;;;;;;;;18.80;58.80;;;;;;5064180;28;42895;-74
2023/01/09 04:21:14;;;;;;;;;;;18.80;58.80;;;;;;5064501;28;43466;-74
2023/01/09 04:23:40;;;;;;;;;;;18.80;58.90;;;;;;5062535;28;43514;-74
2023/01/09 04:26:06;;;;;;;;;;;18.80;58.80;;;;;;5063232;28;43077;-74
2023/01/09 04:28:32;;;;;;;;;;;18.80;58.80;;;;;;5064059;28;42972;-75
2023/01/09 04:30:58;;;;;;;;;;;18.80;58.80;;;;;;5064880;28;43164;-75
2023/01/09 04:33:23;;;;;;;;;;;18.90;58.80;;;;;;5065198;28;43802;-75
2023/01/09 04:35:49;;;;;;;;;;;18.80;58.80;;;;;;5063939;28;42942;-75
2023/01/09 04:38:14;;;;;;;;;;;18.80;58.80;;;;;;5064626;28;43012;-75
2023/01/09 04:40:40;;;;;;;;;;;18.80;58.70;;;;;;5065483;28;43001;-75
2023/01/09 04:43:05;;;;;;;;;;;18.80;58.80;;;;;;5082261;28;43234;-75
2023/01/09 04:45:31;;;;;;;;;;;18.80;58.80;;;;;;5074507;28;43001;-77
2023/01/09 04:47:56;;;;;;;;;;;18.80;58.70;;;;;;5062882;28;42921;-76
2023/01/09 04:50:22;;;;;;;;;;;18.80;58.80;;;;;;5071401;28;42997;-77
2023/01/09 04:52:47;;;;;;;;;;;18.80;58.80;;;;;;5070124;28;43433;-76
2023/01/09 04:55:13;;;;;;;;;;;18.80;58.90;;;;;;5064249;28;42840;-76
2023/01/09 04:57:38;;;;;;;;;;;18.80;58.80;;;;;;5081770;28;42989;-75
2023/01/09 05:00:08;;;;;;;;;;;18.80;58.80;;;;;;5064496;28;42920;-78
2023/01/09 05:02:34;;;;;;;;;;;18.80;58.90;;;;;;5067939;28;42939;-76
2023/01/09 05:05:00;;;;;;;;;;;18.80;58.80;;;;;;5070672;28;42966;-76
2023/01/09 05:07:25;;;;;;;;;;;18.80;58.80;;;;;;5069157;28;43582;-74
2023/01/09 05:09:51;;;;;;;;;;;18.80;58.90;;;;;;5067836;28;42982;-75
2023/01/09 05:12:16;;;;;;;;;;;18.80;58.90;;;;;;5070945;28;43395;-76
2023/01/09 05:14:42;;;;;;;;;;;18.80;58.90;;;;;;5069995;28;43147;-76
2023/01/09 05:17:07;;;;;;;;;;;18.80;58.90;;;;;;5070941;28;43505;-78
2023/01/09 05:22:17;;;;;;;;;;;18.80;58.80;;;;;;5066176;28;43169;-73
2023/01/09 05:24:42;;;;;;;;;;;18.80;58.80;;;;;;5069342;28;43068;-75
2023/01/09 05:27:08;;;;;;;;;;;18.70;59.10;;;;;;5073826;28;43408;-76
2023/01/09 05:29:33;;;;;;;;;;;18.70;59.00;;;;;;5071883;28;43284;-75
2023/01/09 05:31:59;;;;;;;;;;;18.80;58.90;;;;;;5063621;28;43626;-74
2023/01/09 05:34:25;;;;;;;;;;;18.80;58.90;;;;;;5066415;28;42950;-75
2023/01/09 05:36:50;;;;;;;;;;;18.80;58.90;;;;;;5069051;27;43450;-76
2023/01/09 05:39:16;;;;;;;;;;;18.80;58.80;;;;;;5081607;28;43013;-76
2023/01/09 05:41:41;;;;;;;;;;;18.80;58.60;;;;;;5081759;28;43039;-78
2023/01/09 05:44:07;;;;;;;;;;;18.80;57.80;;;;;;5073320;28;42946;-77
2023/01/09 05:46:32;;;;;;;;;;;18.80;53.90;;;;;;5077543;28;43314;-77
2023/01/09 05:48:58;;;;;;;;;;;18.50;53.60;;;;;;5076597;28;42946;-76
2023/01/09 05:51:23;;;;;;;;;;;18.40;53.80;;;;;;5077613;28;43313;-78
2023/01/09 05:53:49;;;;;;;;;;;18.20;54.20;;;;;;5076968;28;43209;-80
2023/01/09 05:56:14;;;;;;;;;;;18.10;54.60;;;;;;5073216;28;42974;-77
2023/01/09 05:58:40;;;;;;;;;;;18.00;54.70;;;;;;5077428;28;43586;-76
2023/01/09 06:01:05;;;;;;;;;;;17.90;54.50;;;;;;5084008;28;43099;-76
2023/01/09 06:03:32;;;;;;;;;;;17.70;54.40;;;;;;5087368;28;42878;-76
2023/01/09 06:05:57;;;;;;;;;;;17.60;54.50;;;;;;5086352;27;42959;-76
2023/01/09 06:08:23;;;;;;;;;;;17.50;54.70;;;;;;5085857;28;43011;-79
2023/01/09 06:10:48;;;;;;;;;;;17.50;54.50;;;;;;5086706;28;45325;-78
2023/01/09 06:13:14;;;;;;;;;;;17.60;54.50;;;;;;5087606;28;42870;-77
2023/01/09 06:15:40;;;;;;;;;;;17.60;54.70;;;;;;5072299;28;42973;-76
2023/01/09 06:18:05;;;;;;;;;;;17.50;54.90;;;;;;5065991;28;42840;-79
2023/01/09 06:20:31;;;;;;;;;;;17.40;54.80;;;;;;5064673;28;44732;-77
2023/01/09 06:22:56;;;;;;;;;;;17.40;54.60;;;;;;5067051;28;42823;-77
2023/01/09 06:25:22;;;;;;;;;;;17.40;54.50;;;;;;5067253;28;43780;-76
2023/01/09 06:27:48;;;;;;;;;;;17.30;54.70;;;;;;5067496;28;42740;-77
2023/01/09 06:30:13;;;;;;;;;;;17.30;54.70;;;;;;5067413;28;42935;-78
2023/01/09 06:32:39;;;;;;;;;;;17.20;55.00;;;;;;5065637;28;42867;-78
2023/01/09 06:35:04;;;;;;;;;;;17.20;55.00;;;;;;5067170;28;42871;-78
2023/01/09 06:37:30;;;;;;;;;;;17.20;55.00;;;;;;5067147;28;43435;-78
2023/01/09 06:39:55;;;;;;;;;;;17.20;55.00;;;;;;5068601;28;43197;-77
2023/01/09 06:42:21;;;;;;;;;;;17.20;55.00;;;;;;5067309;28;43017;-78
2023/01/09 06:44:46;;;;;;;;;;;17.10;55.10;;;;;;5066548;28;43531;-81
2023/01/09 06:47:12;;;;;;;;;;;17.00;55.30;;;;;;5065203;28;42930;-78
2023/01/09 06:49:38;;;;;;;;;;;17.00;55.30;;;;;;5067169;28;42900;-79
2023/01/09 06:52:06;;;;;;;;;;;17.00;55.40;;;;;;5067275;28;43033;-79
2023/01/09 06:54:32;;;;;;;;;;;17.00;55.40;;;;;;5066930;28;43006;-79
2023/01/09 06:56:57;;;;;;;;;;;17.00;55.80;;;;;;5064735;28;43056;-78
2023/01/09 06:59:22;;;;;;;;;;;17.00;55.80;;;;;;5066949;28;42927;-79
2023/01/09 07:01:48;;;;;;;;;;;16.90;56.00;;;;;;5066656;28;42953;-78
2023/01/09 07:04:13;;;;;;;;;;;16.80;56.20;;;;;;5066027;28;42957;-79
2023/01/09 07:06:39;;;;;;;;;;;16.80;56.30;;;;;;5066471;28;42811;-79
2023/01/09 07:09:05;;;;;;;;;;;16.80;56.40;;;;;;5066313;28;43399;-79
2023/01/09 07:11:30;;;;;;;;;;;16.90;56.30;;;;;;5066705;28;42990;-79
2023/01/09 07:13:56;;;;;;;;;;;16.80;56.30;;;;;;5066544;28;43313;-79
2023/01/09 07:16:21;;;;;;;;;;;16.80;56.20;;;;;;5066214;28;43151;-79
2023/01/09 07:18:47;;;;;;;;;;;16.80;56.30;;;;;;5065567;28;43453;-78
2023/01/09 07:21:13;;;;;;;;;;;16.80;56.50;;;;;;5066500;28;42863;-78
2023/01/09 07:23:38;;;;;;;;;;;16.80;56.40;;;;;;5066597;28;43340;-79
2023/01/09 07:26:04;;;;;;;;;;;16.70;56.60;;;;;;5066715;28;42840;-79
2023/01/09 07:28:29;;;;;;;;;;;16.70;56.60;;;;;;5066537;28;42979;-78
2023/01/09 07:30:55;;;;;;;;;;;16.80;57.20;;;;;;5066926;28;43060;-79
2023/01/09 07:33:20;;;;;;;;;;;16.80;56.60;;;;;;5066140;28;42930;-79
2023/01/09 07:35:46;;;;;;;;;;;16.80;56.50;;;;;;5066627;28;42780;-79
2023/01/09 07:38:11;;;;;;;;;;;16.90;56.50;;;;;;5065946;28;42934;-79
2023/01/09 07:40:37;;;;;;;;;;;16.80;56.50;;;;;;5066038;28;42836;-79
2023/01/09 07:43:03;;;;;;;;;;;16.80;56.50;;;;;;5065221;28;42950;-78
2023/01/09 07:45:28;;;;;;;;;;;16.80;56.60;;;;;;5066083;28;42937;-79
2023/01/09 07:47:54;;;;;;;;;;;16.80;56.60;;;;;;5066062;28;43560;-78
2023/01/09 07:50:19;;;;;;;;;;;16.80;56.60;;;;;;5066124;28;42898;-78
2023/01/09 07:52:45;;;;;;;;;;;16.80;56.70;;;;;;5065728;28;42870;-78
2023/01/09 07:55:11;;;;;;;;;;;16.90;56.60;;;;;;5065833;28;42888;-78
2023/01/09 07:57:36;;;;;;;;;;;16.90;56.70;;;;;;5065211;28;43460;-79
2023/01/09 08:00:02;;;;;;;;;;;16.90;56.70;;;;;;5065135;28;42934;-78
2023/01/09 08:02:28;;;;;;;;;;;16.80;56.60;;;;;;5065779;28;42985;-78
2023/01/09 08:04:53;;;;;;;;;;;16.80;56.80;;;;;;5065300;28;43053;-78
2023/01/09 08:07:19;;;;;;;;;;;16.80;57.00;;;;;;5065246;28;42982;-78
2023/01/09 08:09:44;;;;;;;;;;;16.70;57.10;;;;;;5065720;28;43069;-78
2023/01/09 08:12:10;;;;;;;;;;;16.70;57.20;;;;;;5064960;28;43024;-78
2023/01/09 08:14:35;;;;;;;;;;;16.70;57.40;;;;;;5064896;28;42950;-78
2023/01/09 08:17:01;;;;;;;;;;;16.70;57.50;;;;;;5065394;28;43153;-78
2023/01/09 08:19:27;;;;;;;;;;;16.70;57.60;;;;;;5064860;28;42946;-77
2023/01/09 08:21:52;;;;;;;;;;;16.50;57.90;;;;;;5070421;28;43472;-80
2023/01/09 08:24:18;;;;;;;;;;;16.50;58.00;;;;;;5069581;28;42784;-79
2023/01/09 08:26:43;;;;;;;;;;;16.60;58.10;;;;;;5065498;28;44042;-79
2023/01/09 08:29:09;;;;;;;;;;;16.60;58.00;;;;;;5065561;28;42993;-78
2023/01/09 08:31:35;;;;;;;;;;;16.60;57.90;;;;;;5065354;28;42779;-78
2023/01/09 08:34:00;;;;;;;;;;;16.50;57.90;;;;;;5065213;28;42907;-77
2023/01/09 08:36:26;;;;;;;;;;;16.60;57.90;;;;;;5064930;28;43488;-78
2023/01/09 08:38:52;;;;;;;;;;;16.60;58.00;;;;;;5065125;28;42906;-79
2023/01/09 08:49:30;;;;;;;;;;;16.50;58.30;;;;;;5065080;28;42887;-78
2023/01/09 08:51:56;;;;;;;;;;;17.80;59.20;;;;;;5064947;28;42898;-78
2023/01/09 08:54:21;;;;;;;;;;;16.50;58.60;;;;;;5065363;28;43019;-77
2023/01/09 08:56:47;;;;;;;;;;;16.50;59.00;;;;;;5065009;28;43342;-78
2023/01/09 08:59:12;;;;;;;;;;;16.60;58.70;;;;;;5065138;28;42844;-78
2023/01/09 09:01:38;;;;;;;;;;;16.60;58.60;;;;;;5065031;28;43680;-78
2023/01/09 09:04:04;;;;;;;;;;;16.60;58.50;;;;;;5064815;28;43197;-78
2023/01/09 09:06:30;;;;;;;;;;;16.60;58.60;;;;;;5064048;28;43301;-78
2023/01/09 09:08:56;;;;;;;;;;;16.60;58.60;;;;;;5064543;28;43225;-78
2023/01/09 09:11:22;;;;;;;;;;;16.60;58.80;;;;;;5066626;28;43824;-78
2023/01/09 09:13:47;;;;;;;;;;;16.50;58.90;;;;;;5068315;28;42689;-78
2023/01/09 09:16:13;;;;;;;;;;;16.50;58.80;;;;;;5068025;28;42792;-79
2023/01/09 09:18:38;;;;;;;;;;;16.60;58.80;;;;;;5068158;28;42942;-78
2023/01/09 09:21:04;;;;;;;;;;;16.50;59.00;;;;;;5068124;28;43003;-78
2023/01/09 09:23:29;;;;;;;;;;;16.60;59.10;;;;;;5068327;28;42981;-79
2023/01/09 09:28:22;;;;;;;;;;;16.60;58.90;;;;;;5085259;28;44396;-79
2023/01/09 09:30:48;;;;;;;;;;;16.60;58.90;;;;;;5088359;28;42930;-78
2023/01/09 09:33:13;;;;;;;;;;;16.60;58.90;;;;;;5088770;28;42795;-78
2023/01/09 09:35:39;;;;;;;;;;;16.50;59.20;;;;;;5088458;28;43207;-78
2023/01/09 09:38:04;;;;;;;;;;;16.40;59.30;;;;;;5087869;28;43051;-78
2023/01/09 09:40:30;;;;;;;;;;;16.40;59.40;;;;;;5087919;28;43434;-77
2023/01/09 09:45:57;;;;;;;;;;;16.40;59.60;;;;;;5088516;28;42847;-78
2023/01/09 09:48:23;;;;;;;;;;;16.40;59.70;;;;;;5110527;22;42997;-77
2023/01/09 09:51:07;;;;;;;;;;;16.40;60.00;;;;;;5088376;28;42961;-78
2023/01/09 09:53:54;;;;;;;;;;;16.40;60.00;;;;;;5088788;28;42914;-78
2023/01/09 09:56:21;;;;;;;;;;;16.50;60.00;;;;;;5088146;27;42935;-79
2023/01/09 09:58:50;;;;;;;;;;;16.50;59.90;;;;;;5088195;28;43052;-79
2023/01/09 10:01:18;;;;;;;;;;;16.60;59.90;;;;;;5088006;28;43000;-80
2023/01/09 10:03:55;;;;;;;;;;;16.60;59.70;;;;;;5088103;27;42981;-79
2023/01/09 10:08:56;;;;;;;;;;;16.70;59.50;;;;;;5514914;22;43029;-79
2023/01/09 10:11:25;;;;;;;;;;;16.70;59.40;;;;;;5086114;28;45349;-79
2023/01/09 10:14:05;;;;;;;;;;;16.70;59.30;;;;;;5087796;27;42903;-79
2023/01/09 10:16:31;;;;;;;;;;;16.80;59.00;;;;;;5087745;27;42953;-79
2023/01/09 10:19:03;;;;;;;;;;;16.70;58.90;;;;;;5086055;28;43104;-79
2023/01/09 10:21:32;;;;;;;;;;;16.70;59.10;;;;;;5086883;27;43736;-79
2023/01/09 10:24:03;;;;;;;;;;;16.70;59.40;;;;;;5087099;27;43045;-79
2023/01/09 10:26:42;;;;;;;;;;;16.80;59.70;;;;;;5087590;27;42973;-79
2023/01/09 10:29:16;;;;;;;;;;;16.80;59.70;;;;;;5087655;27;42864;-79
2023/01/09 10:31:54;;;;;;;;;;;16.70;59.60;;;;;;5087005;28;42990;-79
2023/01/09 10:34:30;;;;;;;;;;;16.70;59.70;;;;;;5087288;28;43045;-79
2023/01/09 10:37:04;;;;;;;;;;;16.70;59.80;;;;;;5086895;27;43306;-78
2023/01/09 10:39:32;;;;;;;;;;;16.60;59.80;;;;;;5087090;27;42945;-78
2023/01/09 10:42:06;;;;;;;;;;;16.60;59.80;;;;;;5093956;28;42977;-79
2023/01/09 10:44:36;;;;;;;;;;;16.60;59.80;;;;;;5090167;27;42921;-78
2023/01/09 10:47:04;;;;;;;;;;;16.60;59.80;;;;;;5087541;28;42969;-78
2023/01/09 10:52:09;;;;;;;;;;;16.60;60.20;;;;;;5789881;22;43690;-78
2023/01/09 10:54:39;;;;;;;;;;;16.50;60.10;;;;;;5086813;27;42703;-79
2023/01/09 10:57:31;;;;;;;;;;;16.50;60.10;;;;;;5086883;27;43695;-81
2023/01/09 10:59:56;;;;;;;;;;;16.50;60.30;;;;;;5087068;27;43010;-79
2023/01/09 11:02:27;;;;;;;;;;;16.50;60.00;;;;;;5086961;28;43701;-77
2023/01/09 11:04:53;;;;;;;;;;;16.50;59.90;;;;;;5087447;27;42791;-78
2023/01/09 11:07:20;;;;;;;;;;;16.50;59.90;;;;;;5086466;28;43864;-78
2023/01/09 11:10:06;;;;;;;;;;;16.50;59.70;;;;;;5086549;27;42969;-79
2023/01/09 11:12:33;;;;;;;;;;;16.50;59.80;;;;;;5086768;28;43074;-79
2023/01/09 11:15:20;;;;;;;;;;;16.60;59.80;;;;;;5085591;28;42973;-78
2023/01/09 11:17:46;;;;;;;;;;;16.60;59.90;;;;;;5087015;28;43859;-79
2023/01/09 11:20:29;;;;;;;;;;;16.50;59.80;;;;;;5086878;27;42909;-78
2023/01/09 11:22:56;;;;;;;;;;;16.50;59.80;;;;;;5086778;27;43588;-78
2023/01/09 11:25:23;;;;;;;;;;;16.50;59.90;;;;;;5087080;27;42957;-81
2023/01/09 11:28:15;;;;;;;;;;;16.50;59.90;;;;;;5085280;28;44922;-79
2023/01/09 11:30:51;;;;;;;;;;;16.50;60.00;;;;;;5082646;27;42981;-79
2023/01/09 11:33:23;;;;;;;;;;;16.40;59.90;;;;;;5085823;27;42866;-80
2023/01/09 11:35:59;;;;;;;;;;;16.40;59.90;;;;;;5074737;28;42976;-78
2023/01/09 11:38:25;;;;;;;;;;;16.40;59.90;;;;;;5066668;28;42938;-75
2023/01/09 11:40:56;;;;;;;;;;;16.40;60.00;;;;;;5076274;27;42943;-76
2023/01/09 11:43:29;;;;;;;;;;;16.50;60.10;;;;;;5065916;28;43815;-76
2023/01/09 11:45:55;;;;;;;;;;;16.60;59.80;;;;;;5069167;28;43074;-76
2023/01/09 11:48:28;;;;;;;;;;;16.70;59.60;;;;;;5076185;27;43040;-75
2023/01/09 11:50:56;;;;;;;;;;;16.70;59.50;;;;;;5074125;27;43324;-76
2023/01/09 11:53:22;;;;;;;;;;;16.70;59.30;;;;;;5073449;28;42934;-77
2023/01/09 11:55:52;;;;;;;;;;;16.80;59.00;;;;;;5074371;27;42942;-77
2023/01/09 11:58:19;;;;;;;;;;;16.90;59.00;;;;;;5074019;28;43352;-77
2023/01/09 12:00:45;;;;;;;;;;;17.00;58.70;;;;;;5074119;28;42850;-74
2023/01/09 12:03:10;;;;;;;;;;;17.10;58.30;;;;;;5074132;28;43042;-77
2023/01/09 12:05:43;;;;;;;;;;;17.10;58.20;;;;;;5075175;28;43166;-76
2023/01/09 12:08:14;;;;;;;;;;;17.20;58.20;;;;;;5081490;28;43567;-76
2023/01/09 12:10:58;;;;;;;;;;;17.20;58.20;;;;;;5071949;28;43020;-77
2023/01/09 12:13:47;;;;;;;;;;;17.20;58.30;;;;;;5074578;28;43582;-76
2023/01/09 12:16:22;;;;;;;;;;;17.20;58.30;;;;;;5075081;28;42884;-76
2023/01/09 12:18:59;;;;;;;;;;;17.20;58.30;;;;;;5074910;28;43573;-74
2023/01/09 12:21:34;;;;;;;;;;;17.30;58.30;;;;;;5071651;28;61140;-74
2023/01/09 12:24:18;;;;;;;;;;;17.30;58.30;;;;;;5073964;27;42820;-76
2023/01/09 12:27:03;;;;;;;;;;;17.30;58.30;;;;;;5067890;28;42895;-75
2023/01/09 12:29:28;;;;;;;;;;;17.20;58.40;;;;;;5076531;28;43929;-75
2023/01/09 12:31:53;;;;;;;;;;;17.30;58.30;;;;;;5072591;28;42917;-75
2023/01/09 12:34:19;;;;;;;;;;;17.30;58.40;;;;;;5072965;28;43937;-75
2023/01/09 12:36:58;;;;;;;;;;;17.30;58.40;;;;;;5074553;28;43019;-76
2023/01/09 12:39:26;;;;;;;;;;;17.40;58.40;;;;;;5073169;28;42974;-75
2023/01/09 12:41:54;;;;;;;;;;;17.40;58.30;;;;;;5070728;28;43013;-76
2023/01/09 12:44:26;;;;;;;;;;;17.40;58.20;;;;;;5072383;27;42897;-74
2023/01/09 12:46:54;;;;;;;;;;;17.50;58.20;;;;;;5074370;28;42862;-75
2023/01/09 12:49:43;;;;;;;;;;;17.50;58.20;;;;;;5073216;28;43493;-75
2023/01/09 12:52:16;;;;;;;;;;;17.50;58.20;;;;;;5074082;28;42940;-75
2023/01/09 12:54:46;;;;;;;;;;;17.50;58.20;;;;;;5073823;28;43716;-75
2023/01/09 12:57:11;;;;;;;;;;;17.50;58.30;;;;;;5074965;28;42928;-75
2023/01/09 12:59:46;;;;;;;;;;;17.50;58.30;;;;;;5072863;28;43551;-75
2023/01/09 13:02:14;;;;;;;;;;;17.50;58.20;;;;;;5074322;27;42889;-75
2023/01/09 13:05:06;;;;;;;;;;;17.50;58.20;;;;;;5075907;28;43431;-75
2023/01/09 13:07:40;;;;;;;;;;;17.50;58.30;;;;;;5071360;28;42854;-75
2023/01/09 13:10:24;;;;;;;;;;;17.60;58.40;;;;;;5070397;28;43566;-75
2023/01/09 13:12:50;;;;;;;;;;;17.50;58.40;;;;;;5070579;28;43039;-74
2023/01/09 13:15:19;;;;;;;;;;;17.60;58.50;;;;;;5069888;28;43210;-73
2023/01/09 13:17:47;;;;;;;;;;;17.60;58.50;;;;;;5072691;28;43678;-73
2023/01/09 13:20:21;;;;;;;;;;;17.60;58.60;;;;;;5073050;28;42996;-74
2023/01/09 13:22:49;;;;;;;;;;;17.60;58.50;;;;;;5064164;28;43020;-73
2023/01/09 13:25:33;;;;;;;;;;;17.60;58.50;;;;;;5062117;28;43013;-73
2023/01/09 13:28:01;;;;;;;;;;;17.60;58.60;;;;;;5073087;28;42937;-74
2023/01/09 13:30:32;;;;;;;;;;;17.50;58.60;;;;;;5074958;28;43629;-73
2023/01/09 13:33:06;;;;;;;;;;;17.50;59.10;;;;;;5073871;28;42898;-72
2023/01/09 13:35:31;;;;;;;;;;;17.60;58.70;;;;;;5072547;28;43687;-73
2023/01/09 13:37:57;;;;;;;;;;;17.50;58.70;;;;;;5074200;28;42906;-75
2023/01/09 13:40:22;;;;;;;;;;;17.50;58.70;;;;;;5075029;28;42952;-73
2023/01/09 13:43:04;;;;;;;;;;;17.50;58.80;;;;;;5074076;28;42962;-75
2023/01/09 13:45:32;;;;;;;;;;;17.50;58.70;;;;;;5072822;28;43036;-75
2023/01/09 13:48:09;;;;;;;;;;;17.50;58.80;;;;;;5074295;28;43103;-74
2023/01/09 13:50:38;;;;;;;;;;;17.50;58.80;;;;;;5074339;28;43274;-74
2023/01/09 13:53:16;;;;;;;;;;;17.50;58.90;;;;;;5070208;28;43548;-73
2023/01/09 13:56:02;;;;;;;;;;;17.50;58.80;;;;;;5071920;28;43017;-74
2023/01/09 13:58:36;;;;;;;;;;;17.50;58.80;;;;;;5077835;28;42769;-73
2023/01/09 14:01:34;;;;;;;;;;;17.50;58.80;;;;;;5077095;28;43775;-73
2023/01/09 14:04:09;;;;;;;;;;;17.50;58.80;;;;;;5076692;28;43302;-73
2023/01/09 14:06:34;;;;;;;;;;;17.50;58.80;;;;;;5075628;28;43135;-73
2023/01/09 14:09:11;;;;;;;;;;;17.50;58.70;;;;;;5077134;27;43256;-73
2023/01/09 14:11:37;;;;;;;;;;;17.50;58.70;;;;;;5075999;28;43674;-73
2023/01/09 14:14:04;;;;;;;;;;;17.50;58.70;;;;;;5075105;28;43052;-73
2023/01/09 14:16:31;;;;;;;;;;;17.50;58.80;;;;;;5077783;28;42838;-73
2023/01/09 14:19:15;;;;;;;;;;;17.60;58.70;;;;;;5074626;28;42831;-73
2023/01/09 14:21:51;;;;;;;;;;;17.60;58.70;;;;;;5076240;28;43610;-73
2023/01/09 14:24:19;;;;;;;;;;;17.60;58.60;;;;;;5075241;28;42998;-75
2023/01/09 14:26:55;;;;;;;;;;;17.60;58.60;;;;;;5075250;28;43641;-74
2023/01/09 14:29:29;;;;;;;;;;;17.60;58.60;;;;;;5076357;28;42981;-74
2023/01/09 14:32:13;;;;;;;;;;;17.60;58.50;;;;;;5075322;28;42954;-74
2023/01/09 14:34:39;;;;;;;;;;;17.60;58.40;;;;;;5075671;28;43002;-74
2023/01/09 14:37:09;;;;;;;;;;;17.70;58.40;;;;;;5076281;27;42926;-74
2023/01/09 14:39:35;;;;;;;;;;;17.60;58.40;;;;;;5077692;28;43070;-74
2023/01/09 14:42:07;;;;;;;;;;;17.60;58.50;;;;;;5075056;28;43075;-74
2023/01/09 14:45:06;;;;;;;;;;;17.30;58.60;;;;;;5074938;28;43115;-74
2023/01/09 14:47:50;;;;;;;;;;;17.60;58.60;;;;;;5040070;28;43594;-74
2023/01/09 14:50:31;;;;;;;;;;;17.60;58.60;;;;;;5076436;28;42929;-72